Crookhaven, Ireland
Current Conditions -  °F | °C
As of 11:30 AM on Thursday 18 Dec 2014 (Local Time) from EIKY Reporting Station
Light Rain Light Rain  
Wind Chill: 55°   Ceiling: 1300
Heat Index: 55°   Visibility: 4mi
Dew Point: 54°   Wind: 28mph
Humidity: 94%   Direction: 250°WSW
Pressure: 29.71"   Gusts: 41mph
Location:  51.47°N, 9.73°W
Report Text: EIKY 181030Z 25024G36KT 6000 -RA BKN013 OVC020 13/12 Q1006
Loading
Personal Weather Stations






























Interactive Weather Map New forecast layout! Learn more

10-Day Weather Forecast

Advertisements
Track Severe Weather on mobile